Time;durP1;ratioP1;P1;durP2;ratioP2;P2;SDS_P1;SDS_P2;PMS_P1;PMS_P2;Temp;Humidity;BMP_temperature;BMP_pressure;BME280_temperature;BME280_humidity;BME280_pressure;Samples;Min_cycle;Max_cycle;Signal;HPM_P1;HPM_P2
2023/06/29 00:01:03;;;;;;;;;;;;;;;14.18;64.64;93060.66;2055366;70;20046;-77
2023/06/29 00:03:29;;;;;;;;;;;;;;;14.18;64.74;93059.91;2055346;69;20055;-77
2023/06/29 00:05:55;;;;;;;;;;;;;;;14.12;64.62;93068.81;2055316;69;20054;-76
2023/06/29 00:08:24;;;;;;;;;;;;;;;14.05;64.54;93067.00;2055172;70;20150;-77
2023/06/29 00:10:53;;;;;;;;;;;;;;;13.98;65.09;93068.06;2055633;70;20073;-76
2023/06/29 00:13:19;;;;;;;;;;;;;;;13.98;65.11;93068.06;2055893;69;20050;-75
2023/06/29 00:15:45;;;;;;;;;;;;;;;14.08;64.51;93071.44;2055827;70;20398;-75
2023/06/29 00:18:12;;;;;;;;;;;;;;;13.90;64.67;93054.19;2056089;69;20058;-75
2023/06/29 00:20:38;;;;;;;;;;;;;;;13.97;64.38;93072.22;2056094;70;20073;-74
2023/06/29 00:23:04;;;;;;;;;;;;;;;13.88;65.66;93065.41;2068868;69;20058;-76
2023/06/29 00:25:29;;;;;;;;;;;;;;;13.87;65.09;93058.28;2055725;70;20470;-78
2023/06/29 00:27:55;;;;;;;;;;;;;;;13.80;65.45;93064.25;2068424;69;20453;-76
2023/06/29 00:30:20;;;;;;;;;;;;;;;13.80;65.68;93056.47;2068619;69;20054;-76
2023/06/29 00:32:46;;;;;;;;;;;;;;;13.75;65.67;93049.13;2055621;69;20054;-75
2023/06/29 00:38:41;;;;;;;;;;;;;;;13.81;65.65;93051.56;2055592;69;20050;-74
2023/06/29 00:41:07;;;;;;;;;;;;;;;13.66;66.57;93058.53;2055784;69;20058;-75
2023/06/29 00:43:32;;;;;;;;;;;;;;;13.69;66.29;93057.28;2055520;69;20062;-75
2023/06/29 00:45:58;;;;;;;;;;;;;;;13.45;65.95;93042.53;2068300;69;20069;-75
2023/06/29 00:48:23;;;;;;;;;;;;;;;13.60;65.86;93056.09;2065352;69;20053;-74
2023/06/29 00:50:49;;;;;;;;;;;;;;;13.62;65.56;93044.91;2068133;69;20502;-74
2023/06/29 00:53:14;;;;;;;;;;;;;;;13.51;66.36;93047.78;2068526;69;20050;-74
2023/06/29 00:55:40;;;;;;;;;;;;;;;13.55;66.07;93048.75;2055485;70;20058;-74
2023/06/29 00:58:06;;;;;;;;;;;;;;;13.55;65.80;93039.53;2068456;69;20046;-74
2023/06/29 01:00:32;;;;;;;;;;;;;;;13.50;66.15;93040.66;2065355;69;20398;-74
2023/06/29 01:02:58;;;;;;;;;;;;;;;13.43;66.00;93039.59;2055343;69;20074;-74
2023/06/29 01:05:24;;;;;;;;;;;;;;;13.51;65.98;93040.03;2067970;69;20057;-74
2023/06/29 01:07:56;;;;;;;;;;;;;;;13.44;65.48;93041.06;2065506;69;20085;-74
2023/06/29 01:10:24;;;;;;;;;;;;;;;13.30;67.50;93038.19;2068210;69;20209;-75
2023/06/29 01:12:50;;;;;;;;;;;;;;;13.35;66.25;93042.69;2068390;69;20177;-75
2023/06/29 01:18:46;;;;;;;;;;;;;;;13.34;66.05;93037.69;2055788;70;20140;-74
2023/06/29 01:21:13;;;;;;;;;;;;;;;13.26;66.35;93045.69;2055560;69;20065;-74
2023/06/29 01:27:07;;;;;;;;;;;;;;;13.26;66.18;93037.22;2055463;69;20054;-74
2023/06/29 01:29:33;;;;;;;;;;;;;;;13.27;65.86;93025.28;2068621;69;20563;-74
2023/06/29 01:32:03;;;;;;;;;;;;;;;13.28;66.71;93028.84;2055320;69;20058;-74
2023/06/29 01:38:10;;;;;;;;;;;;;;;13.16;66.45;93023.94;2055447;69;20212;-73
2023/06/29 01:40:37;;;;;;;;;;;;;;;13.16;66.40;93023.94;2055569;70;20046;-74
2023/06/29 01:43:04;;;;;;;;;;;;;;;13.03;67.22;93021.06;2055638;70;20054;-74
2023/06/29 01:45:32;;;;;;;;;;;;;;;13.09;66.57;93012.91;2055262;69;20051;-74
2023/06/29 01:47:57;;;;;;;;;;;;;;;13.03;66.52;93023.88;2055377;69;20050;-74
2023/06/29 01:50:23;;;;;;;;;;;;;;;13.04;66.04;93019.69;2068656;69;20210;-74
2023/06/29 01:52:49;;;;;;;;;;;;;;;13.10;66.41;93017.22;2068571;69;20061;-74
2023/06/29 01:55:14;;;;;;;;;;;;;;;13.03;66.03;93013.31;2055466;70;20469;-75
2023/06/29 01:57:40;;;;;;;;;;;;;;;13.07;66.20;93018.47;2055490;70;20119;-74
2023/06/29 02:00:08;;;;;;;;;;;;;;;12.90;67.33;93013.97;2055381;70;20084;-73
2023/06/29 02:02:40;;;;;;;;;;;;;;;12.96;66.43;93012.22;2055052;69;20505;-74
2023/06/29 02:05:07;;;;;;;;;;;;;;;12.83;67.05;93015.72;2068278;69;20058;-76
2023/06/29 02:07:32;;;;;;;;;;;;;;;12.82;67.03;93011.41;2068012;69;20056;-75
2023/06/29 02:09:59;;;;;;;;;;;;;;;12.72;66.93;93011.56;2067729;69;20141;-76
2023/06/29 02:12:24;;;;;;;;;;;;;;;12.61;67.12;93015.16;2068300;69;20054;-77
2023/06/29 02:14:50;;;;;;;;;;;;;;;12.72;66.54;93013.66;2055308;70;20422;-75
2023/06/29 02:17:16;;;;;;;;;;;;;;;12.67;66.93;93023.97;2065639;69;20115;-75
2023/06/29 02:19:41;;;;;;;;;;;;;;;12.88;66.16;93011.78;2068235;69;20403;-74
2023/06/29 02:22:06;;;;;;;;;;;;;;;12.83;66.86;93020.63;2055391;70;20056;-74
2023/06/29 02:24:32;;;;;;;;;;;;;;;12.72;67.65;93010.84;2055411;70;20043;-74
2023/06/29 02:26:59;;;;;;;;;;;;;;;12.75;66.91;93015.25;2055263;70;20570;-73
2023/06/29 02:29:24;;;;;;;;;;;;;;;12.77;67.27;93015.38;2068331;69;20054;-74
2023/06/29 02:31:52;;;;;;;;;;;;;;;12.71;67.12;93015.75;2055392;70;20465;-75
2023/06/29 02:34:19;;;;;;;;;;;;;;;12.68;67.63;93016.25;2068148;69;20060;-74
2023/06/29 02:36:45;;;;;;;;;;;;;;;12.63;67.23;93008.91;2065202;69;20063;-75
2023/06/29 02:39:13;;;;;;;;;;;;;;;12.65;67.36;93012.59;2068459;69;20520;-75
2023/06/29 02:41:39;;;;;;;;;;;;;;;12.66;67.19;93007.66;2055545;70;20086;-75
2023/06/29 02:44:04;;;;;;;;;;;;;;;12.73;66.64;93007.38;2068585;69;20051;-74
2023/06/29 02:46:30;;;;;;;;;;;;;;;12.57;67.70;93005.72;2068299;69;20483;-75
2023/06/29 02:48:55;;;;;;;;;;;;;;;12.55;68.10;93011.25;2068401;69;20053;-75
2023/06/29 02:51:21;;;;;;;;;;;;;;;12.44;68.26;93016.28;2055454;70;20403;-75
2023/06/29 02:53:49;;;;;;;;;;;;;;;12.62;67.27;93022.28;2068502;69;20139;-75
2023/06/29 02:56:14;;;;;;;;;;;;;;;12.61;66.91;93020.09;2068264;69;20425;-75
2023/06/29 02:58:41;;;;;;;;;;;;;;;12.63;66.52;93023.00;2055540;69;20414;-75
2023/06/29 03:01:11;;;;;;;;;;;;;;;12.59;66.90;93014.31;2068516;69;20084;-73
2023/06/29 03:03:37;;;;;;;;;;;;;;;12.53;67.25;93017.50;2055377;69;20042;-74
2023/06/29 03:06:05;;;;;;;;;;;;;;;12.40;67.96;93015.31;2055340;70;20582;-75
2023/06/29 03:08:31;;;;;;;;;;;;;;;12.54;66.82;93013.31;2068288;69;20058;-74
2023/06/29 03:10:57;;;;;;;;;;;;;;;12.46;67.88;93010.03;2068401;69;20119;-76
2023/06/29 03:13:22;;;;;;;;;;;;;;;12.38;67.62;93007.47;2055382;70;20057;-75
2023/06/29 03:15:47;;;;;;;;;;;;;;;12.45;67.60;93000.81;2055480;70;20086;-76
2023/06/29 03:18:13;;;;;;;;;;;;;;;12.40;67.74;93009.69;2055415;70;20418;-76
2023/06/29 03:20:39;;;;;;;;;;;;;;;12.38;67.41;93007.47;2055317;70;20150;-73
2023/06/29 03:23:05;;;;;;;;;;;;;;;12.30;68.26;93007.00;2055242;70;20051;-75
2023/06/29 03:25:30;;;;;;;;;;;;;;;12.30;67.97;93003.44;2055023;69;20153;-77
2023/06/29 03:27:56;;;;;;;;;;;;;;;12.37;67.40;93008.84;2055081;69;20478;-75
2023/06/29 03:30:21;;;;;;;;;;;;;;;12.32;68.27;93018.41;2054880;70;20061;-76
2023/06/29 03:32:47;;;;;;;;;;;;;;;12.36;67.68;93010.16;2054421;70;20504;-74
2023/06/29 03:35:12;;;;;;;;;;;;;;;12.29;67.96;93007.63;2067658;69;20498;-75
2023/06/29 03:37:37;;;;;;;;;;;;;;;12.34;67.96;93012.16;2054694;70;20066;-74
2023/06/29 03:40:03;;;;;;;;;;;;;;;12.30;68.05;93009.81;2055354;69;20090;-76
2023/06/29 03:42:29;;;;;;;;;;;;;;;12.22;68.17;93006.50;2055453;69;20085;-75
2023/06/29 03:44:54;;;;;;;;;;;;;;;12.23;68.03;93007.25;2055593;70;20116;-78
2023/06/29 03:50:56;;;;;;;;;;;;;;;12.24;67.96;93000.25;2055999;69;20129;-77
2023/06/29 03:53:22;;;;;;;;;;;;;;;12.26;67.85;92998.28;2055647;69;20078;-77
2023/06/29 03:55:48;;;;;;;;;;;;;;;12.22;67.91;93000.88;2068692;69;20134;-75
2023/06/29 03:58:14;;;;;;;;;;;;;;;12.28;67.96;93001.25;2055534;70;20057;-77
2023/06/29 04:00:39;;;;;;;;;;;;;;;12.17;68.84;92993.50;2068875;69;20058;-77
2023/06/29 04:03:05;;;;;;;;;;;;;;;12.23;68.58;92991.03;2055784;69;20058;-77
2023/06/29 04:05:31;;;;;;;;;;;;;;;12.30;68.22;92992.88;2068726;69;20058;-77
2023/06/29 04:07:56;;;;;;;;;;;;;;;12.32;67.63;92998.63;2055810;70;20051;-76
2023/06/29 04:10:22;;;;;;;;;;;;;;;12.07;69.27;92999.28;2068831;69;20050;-77
2023/06/29 04:12:47;;;;;;;;;;;;;;;12.15;68.67;93002.59;2055914;70;20077;-77
2023/06/29 04:15:12;;;;;;;;;;;;;;;12.23;68.49;93012.88;2068878;69;20043;-75
2023/06/29 04:17:38;;;;;;;;;;;;;;;12.18;68.44;93014.72;2055890;70;20102;-75
2023/06/29 04:20:04;;;;;;;;;;;;;;;12.31;67.96;93004.91;2068939;69;20433;-76
2023/06/29 04:22:29;;;;;;;;;;;;;;;12.31;68.11;93008.47;2068811;69;20054;-74
2023/06/29 04:24:54;;;;;;;;;;;;;;;12.29;68.25;93002.72;2055795;69;20115;-75
2023/06/29 04:27:20;;;;;;;;;;;;;;;12.38;67.70;93010.31;2055806;69;20169;-75
2023/06/29 04:29:45;;;;;;;;;;;;;;;12.40;67.18;92999.13;2055641;70;20421;-75
2023/06/29 04:32:11;;;;;;;;;;;;;;;12.33;67.84;93005.78;2068987;69;20051;-75
2023/06/29 04:34:36;;;;;;;;;;;;;;;12.29;68.07;93004.78;2068925;69;20058;-76
2023/06/29 04:37:02;;;;;;;;;;;;;;;12.34;68.20;93010.06;2055886;70;20440;-75
2023/06/29 04:39:28;;;;;;;;;;;;;;;12.35;68.12;93003.06;2055722;69;20046;-74
2023/06/29 04:42:00;;;;;;;;;;;;;;;12.39;67.73;92999.75;2055604;70;20097;-76
2023/06/29 04:44:31;;;;;;;;;;;;;;;12.38;67.22;93004.66;2055731;70;20419;-75
2023/06/29 04:46:59;;;;;;;;;;;;;;;12.37;67.95;93000.38;2055773;69;20049;-75
2023/06/29 04:49:27;;;;;;;;;;;;;;;12.49;67.53;92991.84;2055694;70;20053;-76
2023/06/29 04:51:55;;;;;;;;;;;;;;;12.40;68.33;92989.91;2055538;70;20053;-75
2023/06/29 04:54:21;;;;;;;;;;;;;;;12.43;67.93;92986.59;2055751;70;20050;-75
2023/06/29 04:56:47;;;;;;;;;;;;;;;12.56;67.33;92987.31;2055816;70;20050;-75
2023/06/29 04:59:12;;;;;;;;;;;;;;;12.24;69.33;92984.06;2055718;70;20042;-75
2023/06/29 05:01:37;;;;;;;;;;;;;;;12.51;67.74;92988.41;2055855;70;20066;-75
2023/06/29 05:04:03;;;;;;;;;;;;;;;12.38;68.66;92976.41;2055825;69;20184;-75
2023/06/29 05:09:58;;;;;;;;;;;;;;;12.48;68.49;92990.41;2055929;69;20475;-77
2023/06/29 05:12:24;;;;;;;;;;;;;;;12.64;67.60;92980.03;2050087;69;20061;-77
2023/06/29 05:14:49;;;;;;;;;;;;;;;12.74;67.00;92977.06;2055861;69;20462;-76
2023/06/29 05:17:15;;;;;;;;;;;;;;;12.71;67.04;92979.03;2055662;70;20053;-75
2023/06/29 05:19:40;;;;;;;;;;;;;;;12.20;69.22;92981.00;2055558;69;20051;-76
2023/06/29 05:22:06;;;;;;;;;;;;;;;12.48;68.43;92975.53;2055755;69;20046;-76
2023/06/29 05:24:31;;;;;;;;;;;;;;;12.40;68.60;92975.78;2055781;70;20058;-75
2023/06/29 05:26:56;;;;;;;;;;;;;;;12.56;67.56;92976.75;2055837;70;20054;-75
2023/06/29 05:29:22;;;;;;;;;;;;;;;12.50;68.67;92972.81;2068718;69;20062;-74
2023/06/29 05:31:47;;;;;;;;;;;;;;;12.47;69.25;92972.00;2055872;69;20534;-75
2023/06/29 05:34:13;;;;;;;;;;;;;;;12.45;69.37;92981.06;2055776;70;20484;-75
2023/06/29 05:36:38;;;;;;;;;;;;;;;12.54;68.82;92967.41;2068355;69;20503;-76
2023/06/29 05:39:05;;;;;;;;;;;;;;;12.62;68.68;92971.44;2055664;70;20096;-75
2023/06/29 05:41:31;;;;;;;;;;;;;;;12.77;67.71;92969.44;2068790;69;20054;-75
2023/06/29 05:43:56;;;;;;;;;;;;;;;12.81;67.16;92969.66;2055709;70;20574;-76
2023/06/29 05:46:21;;;;;;;;;;;;;;;12.88;66.91;92966.56;2055592;70;20149;-75
2023/06/29 05:48:47;;;;;;;;;;;;;;;12.89;66.80;92970.84;2055579;70;20177;-75
2023/06/29 05:51:12;;;;;;;;;;;;;;;12.95;67.11;92964.81;2055820;70;20483;-75
2023/06/29 05:53:38;;;;;;;;;;;;;;;12.92;67.29;92963.22;2055341;70;20223;-76
2023/06/29 05:56:03;;;;;;;;;;;;;;;12.92;67.71;92960.38;2055786;69;20391;-76
2023/06/29 05:58:29;;;;;;;;;;;;;;;13.00;67.69;92960.13;2055661;69;20076;-76
2023/06/29 06:00:55;;;;;;;;;;;;;;;13.09;66.68;92956.38;2055702;70;20057;-76
2023/06/29 06:03:22;;;;;;;;;;;;;;;13.14;66.37;92958.06;2055578;70;20044;-76
2023/06/29 06:05:47;;;;;;;;;;;;;;;13.09;65.03;92947.91;2055702;70;20054;-76
2023/06/29 06:08:13;;;;;;;;;;;;;;;13.01;64.24;92945.34;2068487;69;20123;-76
2023/06/29 06:10:39;;;;;;;;;;;;;;;13.30;63.73;92942.06;2055533;70;20086;-76
2023/06/29 06:13:05;;;;;;;;;;;;;;;13.46;63.27;92939.34;2055592;70;20086;-76
2023/06/29 06:15:30;;;;;;;;;;;;;;;13.63;64.23;92938.88;2055333;69;20469;-76
2023/06/29 06:17:56;;;;;;;;;;;;;;;13.69;64.75;92933.53;2055607;70;20053;-76
2023/06/29 06:20:21;;;;;;;;;;;;;;;13.75;64.86;92930.31;2055466;70;20057;-76
2023/06/29 06:22:46;;;;;;;;;;;;;;;13.87;63.14;92933.03;2068602;69;20054;-76
2023/06/29 06:25:14;;;;;;;;;;;;;;;13.95;64.60;92928.53;2055285;70;20053;-78
2023/06/29 06:27:40;;;;;;;;;;;;;;;13.96;64.74;92923.59;2055531;69;20051;-78
2023/06/29 06:30:08;;;;;;;;;;;;;;;14.13;63.81;92914.56;2055703;70;20046;-77
2023/06/29 06:32:33;;;;;;;;;;;;;;;14.36;61.99;92912.88;2055773;70;20058;-77
2023/06/29 06:34:59;;;;;;;;;;;;;;;14.49;62.83;92915.72;2065821;69;20050;-75
2023/06/29 06:37:24;;;;;;;;;;;;;;;14.52;63.98;92922.19;2055596;70;20069;-77
2023/06/29 06:39:50;;;;;;;;;;;;;;;14.65;62.49;92912.19;2055434;69;20458;-77
2023/06/29 06:42:15;;;;;;;;;;;;;;;14.77;62.94;92909.25;2055462;70;20478;-77
2023/06/29 06:44:52;;;;;;;;;;;;;;;14.89;61.86;92902.06;2068649;69;20077;-75
2023/06/29 06:47:17;;;;;;;;;;;;;;;15.00;62.63;92895.50;2055544;70;20161;-75
2023/06/29 06:49:43;;;;;;;;;;;;;;;15.11;62.64;92896.69;2055488;70;20506;-74
2023/06/29 06:52:08;;;;;;;;;;;;;;;15.19;62.65;92899.19;2055553;70;20158;-74
2023/06/29 06:54:33;;;;;;;;;;;;;;;15.29;62.60;92887.59;2068396;69;20073;-75
2023/06/29 06:56:59;;;;;;;;;;;;;;;15.33;61.78;92891.34;2068312;69;20081;-75
2023/06/29 06:59:24;;;;;;;;;;;;;;;15.43;61.27;92891.81;2055499;70;20086;-76
2023/06/29 07:01:50;;;;;;;;;;;;;;;15.51;61.11;92889.34;2055542;70;20111;-76
2023/06/29 07:04:15;;;;;;;;;;;;;;;15.56;59.86;92887.44;2055574;69;20153;-76
2023/06/29 07:06:40;;;;;;;;;;;;;;;15.66;59.51;92879.38;2055618;70;20073;-76
2023/06/29 07:09:07;;;;;;;;;;;;;;;15.84;58.77;92884.44;2055335;69;20486;-76
2023/06/29 07:11:33;;;;;;;;;;;;;;;15.86;57.48;92885.25;2055420;70;20057;-76
2023/06/29 07:13:59;;;;;;;;;;;;;;;15.98;58.41;92882.94;2055584;70;20069;-76
2023/06/29 07:16:25;;;;;;;;;;;;;;;16.17;59.88;92878.03;2055406;70;20054;-77
2023/06/29 07:19:11;;;;;;;;;;;;;;;16.27;60.00;92878.50;2055164;70;20042;-76
2023/06/29 07:21:37;;;;;;;;;;;;;;;16.37;61.51;92878.19;2055908;70;20054;-77
2023/06/29 07:24:02;;;;;;;;;;;;;;;16.50;58.49;92871.66;2055749;70;20073;-77
2023/06/29 07:26:28;;;;;;;;;;;;;;;16.51;57.58;92873.09;2055980;70;20564;-77
2023/06/29 07:28:53;;;;;;;;;;;;;;;16.47;55.99;92862.28;2055967;70;20141;-77
2023/06/29 07:31:25;;;;;;;;;;;;;;;16.80;57.57;92857.22;2068785;69;20437;-76
2023/06/29 07:33:54;;;;;;;;;;;;;;;16.88;56.75;92861.13;2055894;70;20050;-76
2023/06/29 07:36:22;;;;;;;;;;;;;;;16.97;56.49;92857.22;2068728;69;20050;-77
2023/06/29 07:38:48;;;;;;;;;;;;;;;16.91;55.48;92854.16;2055577;69;20074;-77
2023/06/29 07:41:14;;;;;;;;;;;;;;;17.06;53.87;92835.53;2055818;70;20046;-77
2023/06/29 07:43:41;;;;;;;;;;;;;;;17.16;54.53;92838.75;2068858;69;20057;-77
2023/06/29 07:46:06;;;;;;;;;;;;;;;17.32;52.85;92835.81;2055823;70;20046;-77
2023/06/29 07:48:32;;;;;;;;;;;;;;;17.49;52.58;92835.03;2056100;70;20052;-77
2023/06/29 07:50:57;;;;;;;;;;;;;;;17.59;52.42;92826.13;2068987;69;20065;-76
2023/06/29 07:53:23;;;;;;;;;;;;;;;17.71;51.19;92828.72;2056085;70;20046;-76
2023/06/29 07:55:48;;;;;;;;;;;;;;;17.83;52.87;92819.91;2056124;70;20070;-76
2023/06/29 07:58:14;;;;;;;;;;;;;;;17.98;50.78;92821.88;2055933;70;20400;-76
2023/06/29 08:00:39;;;;;;;;;;;;;;;18.10;50.16;92816.59;2055915;70;20406;-76
2023/06/29 08:03:05;;;;;;;;;;;;;;;18.36;51.24;92816.03;2068964;69;20050;-76
2023/06/29 08:05:30;;;;;;;;;;;;;;;17.93;50.89;92808.88;2055941;70;20076;-77
2023/06/29 08:07:55;;;;;;;;;;;;;;;18.31;48.56;92805.91;2055987;69;20055;-77
2023/06/29 08:10:21;;;;;;;;;;;;;;;18.60;49.18;92802.63;2055788;70;20050;-76
2023/06/29 08:12:48;;;;;;;;;;;;;;;18.83;48.42;92798.38;2055950;69;20043;-76
2023/06/29 08:15:14;;;;;;;;;;;;;;;19.43;47.63;92798.06;2055662;70;20053;-77
2023/06/29 08:17:39;;;;;;;;;;;;;;;19.58;46.38;92790.63;2055694;70;20051;-77
2023/06/29 08:20:09;;;;;;;;;;;;;;;19.74;45.58;92791.84;2055914;70;20090;-77
2023/06/29 08:22:34;;;;;;;;;;;;;;;19.50;46.12;92785.41;2068963;69;20061;-77
2023/06/29 08:24:59;;;;;;;;;;;;;;;19.68;46.60;92785.97;2055939;70;20050;-76
2023/06/29 08:27:25;;;;;;;;;;;;;;;20.60;43.64;92788.41;2055874;70;20046;-76
2023/06/29 08:29:52;;;;;;;;;;;;;;;20.93;43.77;92781.34;2055532;70;20141;-76
2023/06/29 08:32:18;;;;;;;;;;;;;;;21.52;44.54;92788.44;2055648;70;20061;-76
2023/06/29 08:34:43;;;;;;;;;;;;;;;21.72;44.14;92770.97;2055826;70;20046;-76
2023/06/29 08:37:09;;;;;;;;;;;;;;;22.08;41.43;92776.69;2055976;70;20497;-76
2023/06/29 08:39:34;;;;;;;;;;;;;;;22.33;42.30;92766.41;2068768;69;20090;-76
2023/06/29 08:41:59;;;;;;;;;;;;;;;22.91;41.49;92764.53;2068849;69;20086;-76
2023/06/29 08:44:25;;;;;;;;;;;;;;;22.92;39.44;92754.53;2068780;69;20112;-76
2023/06/29 08:46:52;;;;;;;;;;;;;;;23.11;40.00;92752.66;2055772;70;20066;-77
2023/06/29 08:49:20;;;;;;;;;;;;;;;23.47;38.47;92747.44;2055870;69;20082;-76
2023/06/29 08:51:47;;;;;;;;;;;;;;;23.57;39.03;92741.81;2055869;70;20047;-76
2023/06/29 08:54:12;;;;;;;;;;;;;;;23.73;38.54;92744.22;2055849;70;20146;-76
2023/06/29 08:56:38;;;;;;;;;;;;;;;24.75;37.58;92739.53;2055802;70;20145;-76
2023/06/29 08:59:04;;;;;;;;;;;;;;;24.03;36.70;92746.69;2055836;70;20055;-76
2023/06/29 09:01:30;;;;;;;;;;;;;;;24.37;37.75;92739.16;2055777;70;20141;-76
2023/06/29 09:03:56;;;;;;;;;;;;;;;24.76;35.84;92740.97;2055924;69;20058;-75
2023/06/29 09:06:22;;;;;;;;;;;;;;;25.33;35.88;92737.81;2055772;70;20039;-75
2023/06/29 09:08:47;;;;;;;;;;;;;;;25.00;34.15;92731.81;2055429;69;20055;-76
2023/06/29 09:11:13;;;;;;;;;;;;;;;24.99;35.10;92733.25;2055779;70;20505;-75
2023/06/29 09:13:38;;;;;;;;;;;;;;;25.90;37.31;92728.78;2068791;69;20161;-76
2023/06/29 09:16:04;;;;;;;;;;;;;;;25.69;35.13;92725.78;2055920;70;20050;-76
2023/06/29 09:18:29;;;;;;;;;;;;;;;26.20;34.64;92719.50;2055876;69;20058;-77
2023/06/29 09:20:55;;;;;;;;;;;;;;;25.74;34.71;92712.81;2068808;69;20441;-77
2023/06/29 09:23:21;;;;;;;;;;;;;;;26.39;33.55;92717.38;2055731;69;20200;-77
2023/06/29 09:25:48;;;;;;;;;;;;;;;26.81;34.00;92708.06;2055733;70;20054;-76
2023/06/29 09:28:14;;;;;;;;;;;;;;;27.37;33.19;92700.81;2055755;69;20114;-77
2023/06/29 09:30:40;;;;;;;;;;;;;;;27.67;32.74;92702.91;2055790;69;20051;-76
2023/06/29 09:33:07;;;;;;;;;;;;;;;28.27;33.55;92694.69;2055902;70;20054;-76
2023/06/29 09:35:32;;;;;;;;;;;;;;;27.69;33.08;92694.22;2055876;70;20050;-76
2023/06/29 09:38:00;;;;;;;;;;;;;;;28.11;31.85;92690.44;2055718;69;20502;-76
2023/06/29 09:40:26;;;;;;;;;;;;;;;27.24;30.45;92693.63;2055675;69;20077;-76
2023/06/29 09:42:52;;;;;;;;;;;;;;;27.65;31.50;92682.66;2055740;69;20058;-76
2023/06/29 09:45:18;;;;;;;;;;;;;;;28.17;32.09;92683.19;2055818;70;20129;-76
2023/06/29 09:47:51;;;;;;;;;;;;;;;28.54;30.31;92680.81;2068572;69;20149;-75
2023/06/29 09:50:17;;;;;;;;;;;;;;;28.94;31.55;92674.00;2055712;69;20057;-75
2023/06/29 09:52:45;;;;;;;;;;;;;;;28.91;29.44;92669.69;2055721;70;20140;-76
2023/06/29 09:55:10;;;;;;;;;;;;;;;28.22;31.02;92675.91;2055704;70;20050;-75
2023/06/29 09:57:36;;;;;;;;;;;;;;;28.94;30.59;92668.19;2055441;69;20259;-76
2023/06/29 10:00:09;;;;;;;;;;;;;;;29.05;30.60;92660.19;2055824;70;20078;-76
2023/06/29 10:02:34;;;;;;;;;;;;;;;29.95;29.92;92662.84;2055773;69;20047;-76
2023/06/29 10:05:00;;;;;;;;;;;;;;;30.21;29.50;92658.91;2055721;70;20473;-76
2023/06/29 10:07:26;;;;;;;;;;;;;;;30.12;27.97;92651.75;2055733;69;20047;-76
2023/06/29 10:09:53;;;;;;;;;;;;;;;30.26;29.06;92651.56;2055619;69;20062;-76
2023/06/29 10:12:22;;;;;;;;;;;;;;;30.81;28.90;92647.16;2055665;69;20050;-77
2023/06/29 10:14:48;;;;;;;;;;;;;;;31.89;28.20;92636.53;2055395;70;20050;-76
2023/06/29 10:17:24;;;;;;;;;;;;;;;31.85;27.21;92627.88;2055587;70;20057;-75
2023/06/29 10:19:50;;;;;;;;;;;;;;;32.69;26.63;92631.88;2055693;69;20077;-75
2023/06/29 10:22:17;;;;;;;;;;;;;;;32.58;26.74;92629.22;2068751;69;20200;-76
2023/06/29 10:24:43;;;;;;;;;;;;;;;31.35;26.93;92619.34;2055559;69;20046;-76
2023/06/29 10:27:09;;;;;;;;;;;;;;;33.19;26.03;92624.09;2055630;70;20158;-77
2023/06/29 10:30:01;;;;;;;;;;;;;;;32.83;26.25;92614.75;2055622;70;20522;-74
2023/06/29 10:32:31;;;;;;;;;;;;;;;34.37;23.77;92617.22;2055815;69;20054;-76
2023/06/29 10:35:06;;;;;;;;;;;;;;;33.71;24.78;92609.59;2055668;70;20046;-75
2023/06/29 10:37:33;;;;;;;;;;;;;;;33.42;23.80;92600.19;2055800;69;20049;-76
2023/06/29 10:39:59;;;;;;;;;;;;;;;33.84;23.21;92607.78;2055229;70;20047;-76
2023/06/29 10:42:25;;;;;;;;;;;;;;;35.64;22.01;92602.84;2055609;69;20055;-77
2023/06/29 10:44:50;;;;;;;;;;;;;;;34.62;22.42;92605.50;2055638;70;20053;-76
2023/06/29 10:47:28;;;;;;;;;;;;;;;37.38;20.62;92602.78;2055656;69;20151;-77
2023/06/29 10:50:09;;;;;;;;;;;;;;;40.23;17.72;92613.63;2055562;70;20433;-77
2023/06/29 10:52:35;;;;;;;;;;;;;;;40.06;18.43;92596.81;2068546;69;20577;-77
2023/06/29 10:55:16;;;;;;;;;;;;;;;39.03;18.03;92591.69;2068035;69;20141;-76
2023/06/29 10:57:45;;;;;;;;;;;;;;;41.46;17.34;92604.63;2055438;70;20051;-77
2023/06/29 11:00:11;;;;;;;;;;;;;;;42.35;16.65;92599.28;2055483;70;20479;-77
2023/06/29 11:02:37;;;;;;;;;;;;;;;42.92;15.56;92592.03;2055474;69;20613;-77
2023/06/29 11:05:02;;;;;;;;;;;;;;;44.05;15.75;92589.00;2055025;70;20145;-76
2023/06/29 11:07:28;;;;;;;;;;;;;;;44.21;16.62;92577.56;2055324;70;20058;-78
2023/06/29 11:10:00;;;;;;;;;;;;;;;43.09;16.61;92577.63;2055254;69;20050;-76
2023/06/29 11:12:26;;;;;;;;;;;;;;;43.18;15.84;92577.09;2055074;69;20061;-76
2023/06/29 11:18:19;;;;;;;;;;;;;;;44.65;14.90;92564.13;2055023;69;20073;-76
2023/06/29 11:20:45;;;;;;;;;;;;;;;45.80;14.56;92566.09;2055133;70;20062;-76
2023/06/29 11:23:10;;;;;;;;;;;;;;;43.08;15.39;92554.78;2055162;70;20062;-77
2023/06/29 11:25:36;;;;;;;;;;;;;;;45.38;14.87;92559.50;2055190;69;20145;-78
2023/06/29 11:28:02;;;;;;;;;;;;;;;46.55;14.04;92547.63;2055456;70;20497;-78
2023/06/29 11:30:27;;;;;;;;;;;;;;;47.04;14.16;92552.66;2055476;70;20155;-77
2023/06/29 11:32:53;;;;;;;;;;;;;;;46.56;13.26;92546.78;2068495;69;20066;-77
2023/06/29 11:35:21;;;;;;;;;;;;;;;46.12;13.85;92536.09;2055520;70;20544;-76
2023/06/29 11:37:47;;;;;;;;;;;;;;;48.16;13.18;92536.66;2068299;69;20072;-77
2023/06/29 11:40:22;;;;;;;;;;;;;;;48.58;12.98;92524.00;2055286;70;20050;-77
2023/06/29 11:42:49;;;;;;;;;;;;;;;49.83;12.22;92537.41;2054949;70;20137;-78
2023/06/29 11:45:15;;;;;;;;;;;;;;;49.58;12.21;92524.03;2055415;70;20153;-78
2023/06/29 11:47:42;;;;;;;;;;;;;;;47.27;12.04;92515.75;2054954;70;20055;-77
2023/06/29 11:50:09;;;;;;;;;;;;;;;49.46;12.45;92507.19;2068411;69;20190;-78
2023/06/29 11:52:37;;;;;;;;;;;;;;;47.48;13.16;92493.94;2055405;69;20073;-78
2023/06/29 11:55:04;;;;;;;;;;;;;;;48.59;13.85;92495.53;2055292;70;20061;-80
2023/06/29 11:57:33;;;;;;;;;;;;;;;47.63;13.38;92491.84;2055439;69;20493;-76
2023/06/29 12:00:00;;;;;;;;;;;;;;;49.74;11.87;92485.22;2055177;69;20082;-75
2023/06/29 12:02:25;;;;;;;;;;;;;;;49.89;12.23;92485.28;2055164;69;20058;-75
2023/06/29 12:04:58;;;;;;;;;;;;;;;48.59;12.40;92473.94;2055353;70;20199;-75
2023/06/29 12:07:40;;;;;;;;;;;;;;;47.53;12.96;92474.13;2055495;70;20219;-75
2023/06/29 12:10:06;;;;;;;;;;;;;;;42.84;14.92;92459.34;2068840;69;20066;-76
2023/06/29 12:12:35;;;;;;;;;;;;;;;42.34;16.22;92447.06;2055776;69;20054;-77
2023/06/29 12:15:17;;;;;;;;;;;;;;;41.25;16.77;92430.88;2055445;70;20059;-78
2023/06/29 12:17:44;;;;;;;;;;;;;;;40.05;18.12;92436.25;2055681;70;20046;-78
2023/06/29 12:20:16;;;;;;;;;;;;;;;40.77;18.27;92426.31;2055574;70;20522;-76
2023/06/29 12:22:43;;;;;;;;;;;;;;;39.19;18.68;92425.34;2055774;69;20182;-77
2023/06/29 12:25:09;;;;;;;;;;;;;;;38.66;18.63;92407.44;2055784;69;20521;-77
2023/06/29 12:27:34;;;;;;;;;;;;;;;38.47;19.35;92413.53;2055494;70;20112;-77
2023/06/29 12:30:00;;;;;;;;;;;;;;;37.83;19.26;92395.25;2055656;70;20054;-79
2023/06/29 12:32:25;;;;;;;;;;;;;;;36.61;20.14;92386.75;2055492;70;20061;-78
2023/06/29 12:34:51;;;;;;;;;;;;;;;36.80;20.51;92397.69;2055805;70;20158;-76
2023/06/29 12:40:45;;;;;;;;;;;;;;;35.84;21.31;92381.09;2055751;69;20042;-77
2023/06/29 12:43:11;;;;;;;;;;;;;;;36.02;20.87;92380.38;2055873;69;20042;-76
2023/06/29 12:45:37;;;;;;;;;;;;;;;35.71;22.10;92368.44;2065964;69;20153;-77
2023/06/29 12:48:03;;;;;;;;;;;;;;;36.14;20.75;92371.09;2048135;70;20504;-75
2023/06/29 12:50:28;;;;;;;;;;;;;;;35.55;22.21;92361.72;2048732;70;20483;-76
2023/06/29 12:52:54;;;;;;;;;;;;;;;34.07;21.93;92370.63;2049115;70;20043;-77
2023/06/29 12:55:19;;;;;;;;;;;;;;;34.65;22.26;92364.28;2049090;70;20055;-75
2023/06/29 12:57:45;;;;;;;;;;;;;;;34.95;22.31;92359.53;2049206;70;20090;-76
2023/06/29 13:00:12;;;;;;;;;;;;;;;33.81;22.70;92363.41;2048625;70;20475;-76
2023/06/29 13:02:38;;;;;;;;;;;;;;;34.43;21.46;92356.28;2049014;70;20074;-76
2023/06/29 13:05:03;;;;;;;;;;;;;;;34.05;23.85;92356.09;2049111;70;20155;-75
2023/06/29 13:07:29;;;;;;;;;;;;;;;34.30;22.64;92355.97;2048996;70;20630;-75
2023/06/29 13:09:56;;;;;;;;;;;;;;;33.72;22.88;92368.06;2048911;70;20054;-76
2023/06/29 13:12:22;;;;;;;;;;;;;;;33.34;22.35;92353.88;2048944;70;20071;-76